Time,TemperatureF,DewpointF,PressureIn,WindDirection,WindDirectionDegrees,WindSpeedMPH,WindSpeedGustMPH,Humidity,HourlyPrecipIn,Conditions,Clouds,dailyrainin,SoftwareType,DateUTC
2013-01-25 00:00:00,15.8,-2.5,30.49,NE,45,0.0,0.0,44,0.00,,,0.00,WUHU216HW,2013-01-25 05:00:00,
2013-01-25 00:03:00,15.6,-2.5,30.49,NE,45,0.0,0.0,44,0.00,,,0.00,WUHU216HW,2013-01-25 05:03:00,
2013-01-25 00:11:00,15.6,-2.5,30.49,NE,45,0.0,0.0,44,0.00,,,0.00,WUHU216HW,2013-01-25 05:11:00,
2013-01-25 00:16:00,15.9,-2.2,30.48,NE,45,0.0,0.0,44,0.00,,,0.00,WUHU216HW,2013-01-25 05:16:00,
2013-01-25 00:21:00,15.9,-2.2,30.48,NE,45,0.0,0.0,44,0.00,,,0.00,WUHU216HW,2013-01-25 05:21:00,
2013-01-25 00:26:00,15.9,-2.2,30.48,NE,45,0.0,0.0,44,0.00,,,0.00,WUHU216HW,2013-01-25 05:26:00,
2013-01-25 00:31:00,15.8,-2.4,30.48,NE,45,0.0,0.0,44,0.00,,,0.00,WUHU216HW,2013-01-25 05:31:00,
2013-01-25 00:36:00,15.8,-2.4,30.47,NE,45,0.0,0.0,44,0.00,,,0.00,WUHU216HW,2013-01-25 05:36:00,
2013-01-25 00:41:00,15.8,-2.4,30.47,NE,45,0.0,0.0,44,0.00,,,0.00,WUHU216HW,2013-01-25 05:41:00,
2013-01-25 00:46:00,15.6,-3.0,30.46,NE,45,0.0,0.0,43,0.00,,,0.00,WUHU216HW,2013-01-25 05:46:00,
2013-01-25 00:51:00,15.6,-3.0,30.47,ENE,68,0.0,0.0,43,0.00,,,0.00,WUHU216HW,2013-01-25 05:51:00,
2013-01-25 00:56:00,15.4,-3.2,30.47,ENE,68,0.0,0.0,43,0.00,,,0.00,WUHU216HW,2013-01-25 05:56:00,
2013-01-25 01:01:00,15.4,-3.2,30.48,North,0,0.0,0.0,43,0.00,,,0.00,WUHU216HW,2013-01-25 06:01:00,
2013-01-25 01:06:00,15.2,-3.4,30.47,ENE,68,0.0,0.0,43,0.00,,,0.00,WUHU216HW,2013-01-25 06:06:00,
2013-01-25 01:11:00,15.2,-3.5,30.47,East,90,0.0,0.0,43,0.00,,,0.00,WUHU216HW,2013-01-25 06:11:00,
2013-01-25 01:16:00,15.0,-3.5,30.46,ENE,68,0.0,0.0,43,0.00,,,0.00,WUHU216HW,2013-01-25 06:16:00,
2013-01-25 01:21:00,15.0,-3.5,30.46,ENE,68,0.0,0.0,43,0.00,,,0.00,WUHU216HW,2013-01-25 06:21:00,
2013-01-25 01:26:00,15.0,-3.5,30.45,ENE,68,0.0,0.0,43,0.00,,,0.00,WUHU216HW,2013-01-25 06:26:00,
2013-01-25 01:31:00,14.9,-4.2,30.45,ENE,68,0.0,0.0,42,0.00,,,0.00,WUHU216HW,2013-01-25 06:31:00,
2013-01-25 01:36:00,14.9,-4.2,30.46,ENE,68,0.0,0.0,42,0.00,,,0.00,WUHU216HW,2013-01-25 06:36:00,
2013-01-25 01:41:00,14.7,-4.3,30.45,ENE,68,0.0,0.0,42,0.00,,,0.00,WUHU216HW,2013-01-25 06:41:00,
2013-01-25 01:46:00,14.7,-4.3,30.45,ENE,68,0.0,0.0,42,0.00,,,0.00,WUHU216HW,2013-01-25 06:46:00,
2013-01-25 01:51:00,14.7,-4.3,30.45,ENE,68,0.0,0.0,42,0.00,,,0.00,WUHU216HW,2013-01-25 06:51:00,
2013-01-25 01:56:00,14.5,-4.5,30.44,ENE,68,0.0,0.0,42,0.00,,,0.00,WUHU216HW,2013-01-25 06:56:00,
2013-01-25 02:01:00,14.5,-4.5,30.43,ENE,68,0.0,0.0,42,0.00,,,0.00,WUHU216HW,2013-01-25 07:01:00,
2013-01-25 02:06:00,14.5,-4.5,30.43,ENE,68,0.0,0.0,42,0.00,,,0.00,WUHU216HW,2013-01-25 07:06:00,
2013-01-25 02:11:00,14.7,-4.3,30.43,ENE,68,0.0,0.0,42,0.00,,,0.00,WUHU216HW,2013-01-25 07:11:00,
2013-01-25 02:16:00,14.7,-3.9,30.43,ENE,68,0.0,0.0,43,0.00,,,0.00,WUHU216HW,2013-01-25 07:16:00,
2013-01-25 02:21:00,14.7,-3.9,30.43,ENE,68,0.0,0.0,43,0.00,,,0.00,WUHU216HW,2013-01-25 07:21:00,
2013-01-25 02:26:00,14.7,-3.9,30.43,ENE,68,0.0,0.0,43,0.00,,,0.00,WUHU216HW,2013-01-25 07:26:00,
2013-01-25 02:31:00,14.9,-3.7,30.43,ENE,68,0.0,0.0,43,0.00,,,0.00,WUHU216HW,2013-01-25 07:31:00,
2013-01-25 02:36:00,14.9,-3.7,30.43,ENE,68,0.0,0.0,43,0.00,,,0.00,WUHU216HW,2013-01-25 07:36:00,
2013-01-25 02:41:00,15.0,-3.5,30.43,ENE,68,0.0,0.0,43,0.00,,,0.00,WUHU216HW,2013-01-25 07:41:00,
2013-01-25 02:46:00,15.0,-2.9,30.43,ENE,68,0.0,0.0,43,0.00,,,0.00,WUHU216HW,2013-01-25 07:46:00,
2013-01-25 02:51:00,15.2,-2.9,30.43,NE,45,0.0,0.0,44,0.00,,,0.00,WUHU216HW,2013-01-25 07:51:00,
2013-01-25 02:56:00,15.4,-2.9,30.43,ENE,68,0.0,0.0,44,0.00,,,0.00,WUHU216HW,2013-01-25 07:56:00,
2013-01-25 03:01:00,15.4,-2.7,30.43,NE,45,0.0,0.0,44,0.00,,,0.00,WUHU216HW,2013-01-25 08:01:00,
2013-01-25 03:06:00,15.4,-3.2,30.42,NE,45,0.0,0.0,43,0.00,,,0.00,WUHU216HW,2013-01-25 08:06:00,
2013-01-25 03:11:00,15.6,-3.2,30.41,ENE,68,0.0,0.0,43,0.00,,,0.00,WUHU216HW,2013-01-25 08:11:00,
2013-01-25 03:16:00,15.6,-3.0,30.42,NE,45,0.0,0.0,43,0.00,,,0.00,WUHU216HW,2013-01-25 08:16:00,
2013-01-25 03:21:00,15.6,-2.9,30.42,East,90,0.0,0.0,43,0.00,,,0.00,WUHU216HW,2013-01-25 08:21:00,
2013-01-25 03:26:00,15.8,-2.9,30.42,ESE,113,0.0,0.0,43,0.00,,,0.00,WUHU216HW,2013-01-25 08:26:00,
2013-01-25 03:31:00,15.8,-2.9,30.42,East,90,0.0,0.0,43,0.00,,,0.00,WUHU216HW,2013-01-25 08:31:00,
2013-01-25 03:36:00,15.9,-2.7,30.41,ENE,68,0.0,0.0,43,0.00,,,0.00,WUHU216HW,2013-01-25 08:36:00,
2013-01-25 03:41:00,15.9,-2.7,30.41,NE,45,0.0,0.0,43,0.00,,,0.00,WUHU216HW,2013-01-25 08:41:00,
2013-01-25 03:46:00,15.9,-2.7,30.41,NE,45,0.0,0.0,43,0.00,,,0.00,WUHU216HW,2013-01-25 08:46:00,
2013-01-25 03:51:00,15.9,-2.7,30.41,NE,45,0.0,0.0,43,0.00,,,0.00,WUHU216HW,2013-01-25 08:51:00,
2013-01-25 03:56:00,15.9,-2.7,30.41,ENE,68,0.0,0.0,43,0.00,,,0.00,WUHU216HW,2013-01-25 08:56:00,
2013-01-25 04:01:00,15.9,-2.5,30.40,ENE,68,0.0,0.0,43,0.00,,,0.00,WUHU216HW,2013-01-25 09:01:00,
2013-01-25 04:06:00,16.1,-2.5,30.40,ENE,68,0.0,0.0,43,0.00,,,0.00,WUHU216HW,2013-01-25 09:06:00,
2013-01-25 04:11:00,16.1,-2.5,30.40,NE,45,0.0,0.0,43,0.00,,,0.00,WUHU216HW,2013-01-25 09:11:00,
2013-01-25 04:16:00,16.1,-2.5,30.40,NE,45,0.0,0.0,43,0.00,,,0.00,WUHU216HW,2013-01-25 09:16:00,
2013-01-25 04:21:00,16.1,-2.5,30.40,East,90,0.0,0.0,43,0.00,,,0.00,WUHU216HW,2013-01-25 09:21:00,
2013-01-25 04:26:00,16.1,-3.0,30.39,ENE,68,0.0,0.0,42,0.00,,,0.00,WUHU216HW,2013-01-25 09:26:00,
2013-01-25 04:31:00,16.1,-3.0,30.39,East,90,0.0,0.0,42,0.00,,,0.00,WUHU216HW,2013-01-25 09:31:00,
2013-01-25 04:36:00,16.1,-3.0,30.38,NE,45,0.0,0.0,42,0.00,,,0.00,WUHU216HW,2013-01-25 09:36:00,
2013-01-25 04:41:00,16.1,-3.0,30.38,ENE,68,0.0,0.0,42,0.00,,,0.00,WUHU216HW,2013-01-25 09:41:00,
2013-01-25 04:46:00,16.1,-3.0,30.37,ENE,68,0.0,0.0,42,0.00,,,0.00,WUHU216HW,2013-01-25 09:46:00,
2013-01-25 04:51:00,16.1,-3.0,30.36,NE,45,0.0,0.0,42,0.00,,,0.00,WUHU216HW,2013-01-25 09:51:00,
2013-01-25 04:56:00,16.1,-3.0,30.37,NE,45,0.0,0.0,42,0.00,,,0.00,WUHU216HW,2013-01-25 09:56:00,
2013-01-25 05:01:00,16.1,-3.0,30.36,NE,45,0.0,0.0,42,0.00,,,0.00,WUHU216HW,2013-01-25 10:01:00,
2013-01-25 05:06:00,16.1,-3.1,30.35,NNE,23,0.0,0.0,42,0.00,,,0.00,WUHU216HW,2013-01-25 10:06:00,
2013-01-25 05:11:00,16.1,-3.0,30.35,ENE,68,0.0,0.0,42,0.00,,,0.00,WUHU216HW,2013-01-25 10:11:00,
2013-01-25 05:16:00,16.3,-2.8,30.34,NNE,23,0.0,0.0,42,0.00,,,0.00,WUHU216HW,2013-01-25 10:16:00,
2013-01-25 05:21:00,16.1,-3.0,30.34,ESE,113,0.0,0.0,42,0.00,,,0.00,WUHU216HW,2013-01-25 10:21:00,
2013-01-25 05:26:00,16.1,-3.0,30.34,East,90,0.0,0.0,42,0.00,,,0.00,WUHU216HW,2013-01-25 10:26:00,
2013-01-25 05:31:00,16.1,-3.0,30.34,East,90,0.0,0.0,42,0.00,,,0.00,WUHU216HW,2013-01-25 10:31:00,
2013-01-25 05:36:00,16.3,-2.8,30.33,East,90,0.0,0.0,41,0.00,,,0.00,WUHU216HW,2013-01-25 10:36:00,
2013-01-25 05:41:00,16.1,-3.5,30.33,East,90,0.0,0.0,41,0.00,,,0.00,WUHU216HW,2013-01-25 10:41:00,
2013-01-25 05:46:00,16.1,-3.5,30.33,ENE,68,0.0,0.0,41,0.00,,,0.00,WUHU216HW,2013-01-25 10:46:00,
2013-01-25 05:51:00,16.3,-3.3,30.33,East,90,0.0,0.0,41,0.00,,,0.00,WUHU216HW,2013-01-25 10:51:00,
2013-01-25 05:56:00,16.3,-3.3,30.31,East,90,0.0,0.0,41,0.00,,,0.00,WUHU216HW,2013-01-25 10:56:00,
2013-01-25 06:01:00,16.3,-3.3,30.30,East,90,0.0,0.0,41,0.00,,,0.00,WUHU216HW,2013-01-25 11:01:00,
2013-01-25 06:06:00,16.3,-3.3,30.30,NE,45,0.0,0.0,41,0.00,,,0.00,WUHU216HW,2013-01-25 11:06:00,
2013-01-25 06:11:00,16.3,-3.3,30.28,ESE,113,0.0,1.1,41,0.00,,,0.00,WUHU216HW,2013-01-25 11:11:00,
2013-01-25 06:16:00,16.3,-3.3,30.28,East,90,2.4,2.4,41,0.00,,,0.00,WUHU216HW,2013-01-25 11:16:00,
2013-01-25 06:21:00,16.1,-3.5,30.27,East,90,0.0,2.4,41,0.00,,,0.00,WUHU216HW,2013-01-25 11:21:00,
2013-01-25 06:26:00,16.3,-3.3,30.27,NE,45,2.6,2.6,41,0.00,,,0.00,WUHU216HW,2013-01-25 11:26:00,
2013-01-25 06:31:00,16.3,-3.3,30.26,NNW,338,0.0,2.6,41,0.00,,,0.00,WUHU216HW,2013-01-25 11:31:00,
2013-01-25 06:36:00,16.3,-3.3,30.26,NE,45,0.0,0.0,41,0.00,,,0.00,WUHU216HW,2013-01-25 11:36:00,
2013-01-25 06:41:00,16.3,-3.3,30.27,East,90,0.0,0.0,41,0.00,,,0.00,WUHU216HW,2013-01-25 11:41:00,
2013-01-25 06:46:00,16.3,-3.3,30.28,SSE,158,0.0,0.0,41,0.00,,,0.00,WUHU216HW,2013-01-25 11:46:00,
2013-01-25 06:51:00,16.3,-3.3,30.28,NE,45,0.0,0.0,41,0.00,,,0.00,WUHU216HW,2013-01-25 11:51:00,
2013-01-25 06:56:00,16.1,-3.5,30.29,SSE,158,0.0,0.0,41,0.00,,,0.00,WUHU216HW,2013-01-25 11:56:00,
2013-01-25 07:01:00,16.1,-3.5,30.29,SSE,158,0.0,0.0,41,0.00,,,0.00,WUHU216HW,2013-01-25 12:01:00,
2013-01-25 07:06:00,15.9,-3.7,30.29,South,180,0.0,0.0,41,0.00,,,0.00,WUHU216HW,2013-01-25 12:06:00,
2013-01-25 07:11:00,15.9,-3.7,30.29,East,90,0.0,0.0,41,0.00,,,0.00,WUHU216HW,2013-01-25 12:11:00,
2013-01-25 07:16:00,16.1,-3.5,30.28,ESE,113,0.0,0.0,41,0.00,,,0.00,WUHU216HW,2013-01-25 12:16:00,
2013-01-25 07:21:00,16.3,-3.5,30.28,North,0,0.0,0.0,41,0.00,,,0.00,WUHU216HW,2013-01-25 12:21:00,
2013-01-25 07:26:00,16.3,-3.3,30.28,SSE,158,0.0,0.0,41,0.00,,,0.00,WUHU216HW,2013-01-25 12:26:00,
2013-01-25 07:31:00,16.3,-3.3,30.28,ESE,113,0.0,0.0,41,0.00,,,0.00,WUHU216HW,2013-01-25 12:31:00,
2013-01-25 07:36:00,16.5,-3.1,30.27,ESE,113,0.0,0.0,41,0.00,,,0.00,WUHU216HW,2013-01-25 12:36:00,
2013-01-25 07:41:00,16.5,-3.1,30.27,NE,45,0.0,0.0,41,0.00,,,0.00,WUHU216HW,2013-01-25 12:41:00,
2013-01-25 07:46:00,16.5,-3.1,30.26,East,90,0.0,0.0,41,0.00,,,0.00,WUHU216HW,2013-01-25 12:46:00,
2013-01-25 07:51:00,16.7,-3.1,30.25,NE,45,0.0,0.0,41,0.00,,,0.00,WUHU216HW,2013-01-25 12:51:00,
2013-01-25 07:56:00,16.7,-2.5,30.24,NE,45,0.0,0.0,42,0.00,,,0.00,WUHU216HW,2013-01-25 12:56:00,
2013-01-25 08:01:00,16.5,-2.6,30.25,ENE,68,0.0,0.0,42,0.00,,,0.00,WUHU216HW,2013-01-25 13:01:00,
2013-01-25 08:06:00,16.7,-2.5,30.24,ESE,113,0.0,1.1,42,0.00,,,0.00,WUHU216HW,2013-01-25 13:06:00,
2013-01-25 08:11:00,16.7,-2.5,30.24,ESE,113,0.0,1.1,42,0.00,,,0.00,WUHU216HW,2013-01-25 13:11:00,
2013-01-25 08:16:00,16.5,-2.5,30.24,ENE,68,0.0,0.0,42,0.00,,,0.00,WUHU216HW,2013-01-25 13:16:00,
2013-01-25 08:21:00,16.7,-2.5,30.23,NNE,23,0.0,0.0,42,0.00,,,0.00,WUHU216HW,2013-01-25 13:21:00,
2013-01-25 08:26:00,16.7,-2.0,30.23,NNE,23,0.0,0.0,43,0.00,,,0.00,WUHU216HW,2013-01-25 13:26:00,
2013-01-25 08:31:00,16.7,-2.0,30.22,ENE,68,0.0,0.0,43,0.00,,,0.00,WUHU216HW,2013-01-25 13:31:00,
2013-01-25 08:36:00,16.7,-2.0,30.22,East,90,0.0,0.0,43,0.00,,,0.00,WUHU216HW,2013-01-25 13:36:00,
2013-01-25 08:41:00,16.7,-2.0,30.21,NE,45,0.0,0.0,43,0.00,,,0.00,WUHU216HW,2013-01-25 13:41:00,
2013-01-25 08:46:00,16.7,-2.0,30.21,ENE,68,0.0,0.0,43,0.00,,,0.00,WUHU216HW,2013-01-25 13:46:00,
2013-01-25 08:51:00,16.7,-2.0,30.21,ENE,68,0.0,0.0,43,0.00,,,0.00,WUHU216HW,2013-01-25 13:51:00,
2013-01-25 08:56:00,16.8,-1.8,30.22,SSE,158,0.0,0.0,43,0.00,,,0.00,WUHU216HW,2013-01-25 13:56:00,
2013-01-25 09:01:00,16.8,-2.0,30.22,SE,135,0.0,0.0,43,0.00,,,0.00,WUHU216HW,2013-01-25 14:01:00,
2013-01-25 09:06:00,16.7,-2.0,30.22,SE,135,0.0,0.0,43,0.00,,,0.00,WUHU216HW,2013-01-25 14:06:00,
2013-01-25 09:11:00,16.7,-2.0,30.22,ESE,113,0.0,0.0,43,0.00,,,0.00,WUHU216HW,2013-01-25 14:11:00,
2013-01-25 09:16:00,16.5,-2.2,30.22,ENE,68,0.0,0.0,43,0.00,,,0.00,WUHU216HW,2013-01-25 14:16:00,
2013-01-25 09:21:00,16.5,-1.7,30.22,ESE,113,0.0,0.0,44,0.00,,,0.00,WUHU216HW,2013-01-25 14:21:00,
2013-01-25 09:26:00,16.3,-2.0,30.22,ESE,113,0.0,0.0,44,0.00,,,0.00,WUHU216HW,2013-01-25 14:26:00,
2013-01-25 09:31:00,16.1,-1.5,30.22,NNE,23,0.0,0.0,45,0.00,,,0.00,WUHU216HW,2013-01-25 14:31:00,
2013-01-25 09:36:00,16.1,-1.5,30.21,NE,45,0.0,0.0,45,0.00,,,0.00,WUHU216HW,2013-01-25 14:36:00,
2013-01-25 09:41:00,15.9,-1.2,30.21,NE,45,0.0,0.0,46,0.00,,,0.00,WUHU216HW,2013-01-25 14:41:00,
2013-01-25 09:46:00,15.9,-1.2,30.21,NE,45,0.0,0.0,46,0.00,,,0.00,WUHU216HW,2013-01-25 14:46:00,
2013-01-25 09:51:00,15.9,-0.6,30.20,ENE,68,0.0,0.0,47,0.00,,,0.00,WUHU216HW,2013-01-25 14:51:00,
2013-01-25 09:56:00,15.9,-0.7,30.21,ESE,113,0.0,0.0,47,0.00,,,0.00,WUHU216HW,2013-01-25 14:56:00,
2013-01-25 10:01:00,16.1,-0.1,30.21,East,90,0.0,0.0,48,0.00,,,0.00,WUHU216HW,2013-01-25 15:01:00,
2013-01-25 10:06:00,16.1,-0.1,30.21,East,90,0.0,0.0,48,0.00,,,0.00,WUHU216HW,2013-01-25 15:06:00,
2013-01-25 10:11:00,16.3,0.5,30.20,ESE,113,0.0,0.0,49,0.00,,,0.00,WUHU216HW,2013-01-25 15:11:00,
2013-01-25 10:16:00,16.5,0.6,30.20,East,90,0.0,0.0,49,0.00,,,0.00,WUHU216HW,2013-01-25 15:16:00,
2013-01-25 10:21:00,16.7,0.8,30.20,East,90,0.0,0.0,49,0.00,,,0.00,WUHU216HW,2013-01-25 15:21:00,
2013-01-25 10:26:00,16.7,1.3,30.19,ESE,113,0.0,0.0,50,0.00,,,0.00,WUHU216HW,2013-01-25 15:26:00,
2013-01-25 10:31:00,16.7,1.4,30.19,ESE,113,0.0,0.0,50,0.00,,,0.00,WUHU216HW,2013-01-25 15:31:00,
2013-01-25 10:36:00,16.8,1.4,30.19,NE,45,0.0,0.0,50,0.00,,,0.00,WUHU216HW,2013-01-25 15:36:00,
2013-01-25 10:41:00,17.0,1.6,30.18,SE,135,0.0,0.0,50,0.00,,,0.00,WUHU216HW,2013-01-25 15:41:00,
2013-01-25 10:46:00,17.4,2.3,30.18,ESE,113,0.0,0.0,51,0.00,,,0.00,WUHU216HW,2013-01-25 15:46:00,
2013-01-25 10:51:00,17.6,2.5,30.17,East,90,0.0,0.0,51,0.00,,,0.00,WUHU216HW,2013-01-25 15:51:00,
2013-01-25 10:56:00,17.7,2.6,30.17,ESE,113,0.0,0.0,51,0.00,,,0.00,WUHU216HW,2013-01-25 15:56:00,
2013-01-25 11:01:00,17.9,2.8,30.17,ESE,113,0.0,0.0,51,0.00,,,0.00,WUHU216HW,2013-01-25 16:01:00,
2013-01-25 11:06:00,17.9,2.8,30.16,NE,45,0.0,0.0,51,0.00,,,0.00,WUHU216HW,2013-01-25 16:06:00,
2013-01-25 11:11:00,18.3,3.1,30.16,ESE,113,0.0,0.0,51,0.00,,,0.00,WUHU216HW,2013-01-25 16:11:00,
2013-01-25 11:16:00,18.3,3.1,30.15,ENE,68,0.0,0.0,51,0.00,,,0.00,WUHU216HW,2013-01-25 16:16:00,
2013-01-25 11:21:00,18.3,3.1,30.15,NE,45,0.0,0.0,51,0.00,,,0.00,WUHU216HW,2013-01-25 16:21:00,
2013-01-25 11:26:00,18.5,3.7,30.14,ENE,68,0.0,0.0,52,0.00,,,0.00,WUHU216HW,2013-01-25 16:26:00,
2013-01-25 11:31:00,18.6,3.8,30.13,SE,135,0.0,0.0,52,0.00,,,0.00,WUHU216HW,2013-01-25 16:31:00,
2013-01-25 11:36:00,18.8,4.0,30.13,ESE,113,0.0,0.0,52,0.00,,,0.00,WUHU216HW,2013-01-25 16:36:00,
2013-01-25 11:41:00,19.0,4.2,30.13,ESE,113,0.0,0.0,52,0.00,,,0.00,WUHU216HW,2013-01-25 16:41:00,
2013-01-25 11:46:00,19.5,4.6,30.13,ESE,113,0.0,0.0,52,0.00,,,0.00,WUHU216HW,2013-01-25 16:46:00,
2013-01-25 11:51:00,19.5,4.6,30.13,SE,135,0.0,0.0,52,0.00,,,0.00,WUHU216HW,2013-01-25 16:51:00,
2013-01-25 11:56:00,19.9,5.0,30.13,East,90,0.0,0.0,52,0.00,,,0.00,WUHU216HW,2013-01-25 16:56:00,
2013-01-25 12:01:00,20.1,5.1,30.13,SSW,203,0.0,0.0,52,0.00,,,0.00,WUHU216HW,2013-01-25 17:01:00,
2013-01-25 12:06:00,20.3,5.3,30.12,East,90,0.0,0.0,52,0.00,,,0.00,WUHU216HW,2013-01-25 17:06:00,
2013-01-25 12:11:00,20.4,5.5,30.12,East,90,0.0,0.0,52,0.00,,,0.00,WUHU216HW,2013-01-25 17:11:00,
2013-01-25 12:16:00,20.6,5.6,30.12,SE,135,0.0,0.0,52,0.00,,,0.00,WUHU216HW,2013-01-25 17:16:00,
2013-01-25 12:21:00,20.8,5.8,30.11,SSE,158,0.0,0.0,52,0.00,,,0.00,WUHU216HW,2013-01-25 17:21:00,
2013-01-25 12:26:00,20.8,5.4,30.11,SE,135,0.0,0.0,51,0.00,,,0.00,WUHU216HW,2013-01-25 17:26:00,
2013-01-25 12:31:00,20.4,5.1,30.10,ESE,113,0.0,0.0,51,0.00,,,0.00,WUHU216HW,2013-01-25 17:31:00,
2013-01-25 12:36:00,20.6,5.2,30.11,South,180,0.0,0.0,51,0.00,,,0.00,WUHU216HW,2013-01-25 17:36:00,
2013-01-25 12:41:00,20.4,5.1,30.10,ESE,113,0.0,0.0,51,0.00,,,0.00,WUHU216HW,2013-01-25 17:41:00,
2013-01-25 12:46:00,20.6,5.2,30.10,SSE,158,0.0,0.0,51,0.00,,,0.00,WUHU216HW,2013-01-25 17:46:00,
2013-01-25 12:51:00,20.8,5.4,30.09,ESE,113,0.0,0.0,51,0.00,,,0.00,WUHU216HW,2013-01-25 17:51:00,
2013-01-25 12:56:00,21.0,5.5,30.09,SSE,158,0.0,0.0,51,0.00,,,0.00,WUHU216HW,2013-01-25 17:56:00,
2013-01-25 13:01:00,21.0,5.5,30.09,SSE,158,0.0,0.0,51,0.00,,,0.00,WUHU216HW,2013-01-25 18:01:00,
2013-01-25 13:06:00,21.0,5.5,30.09,ESE,113,0.0,0.0,51,0.00,,,0.00,WUHU216HW,2013-01-25 18:06:00,
2013-01-25 13:11:00,21.0,5.5,30.09,ESE,113,0.0,0.0,51,0.00,,,0.00,WUHU216HW,2013-01-25 18:11:00,
2013-01-25 13:16:00,20.8,5.4,30.09,SSE,158,0.0,0.0,51,0.00,,,0.00,WUHU216HW,2013-01-25 18:16:00,
2013-01-25 13:21:00,20.6,4.8,30.08,SSE,158,0.0,0.0,50,0.00,,,0.00,WUHU216HW,2013-01-25 18:21:00,
2013-01-25 13:26:00,20.6,4.8,30.08,SE,135,0.0,0.0,50,0.00,,,0.00,WUHU216HW,2013-01-25 18:26:00,
2013-01-25 13:31:00,20.6,4.8,30.08,ESE,113,0.0,0.0,50,0.00,,,0.00,WUHU216HW,2013-01-25 18:31:00,
2013-01-25 13:36:00,20.8,5.4,30.07,South,180,0.0,0.0,51,0.00,,,0.00,WUHU216HW,2013-01-25 18:36:00,
2013-01-25 13:41:00,21.0,5.5,30.08,SSE,158,0.0,0.0,51,0.00,,,0.00,WUHU216HW,2013-01-25 18:41:00,
2013-01-25 13:46:00,21.0,5.5,30.07,South,180,0.0,0.0,51,0.00,,,0.00,WUHU216HW,2013-01-25 18:46:00,
2013-01-25 13:51:00,21.0,5.5,30.07,South,180,0.0,0.0,51,0.00,,,0.00,WUHU216HW,2013-01-25 18:51:00,
2013-01-25 13:56:00,21.3,5.9,30.07,South,180,0.0,0.0,51,0.00,,,0.00,WUHU216HW,2013-01-25 18:56:00,
2013-01-25 14:01:00,21.0,5.1,30.06,SSE,158,0.0,0.0,50,0.00,,,0.00,WUHU216HW,2013-01-25 19:01:00,
2013-01-25 14:06:00,21.0,5.1,30.06,SSW,203,0.0,0.0,50,0.00,,,0.00,WUHU216HW,2013-01-25 19:06:00,
2013-01-25 14:11:00,21.0,5.1,30.05,SW,225,0.0,0.0,50,0.00,,,0.00,WUHU216HW,2013-01-25 19:11:00,
2013-01-25 14:16:00,21.0,5.1,30.05,SSW,203,0.0,0.0,50,0.00,,,0.00,WUHU216HW,2013-01-25 19:16:00,
2013-01-25 14:21:00,21.3,5.3,30.06,SSW,203,0.0,0.0,50,0.00,,,0.00,WUHU216HW,2013-01-25 19:21:00,
2013-01-25 14:26:00,21.3,5.9,30.06,South,180,0.0,0.0,51,0.00,,,0.00,WUHU216HW,2013-01-25 19:26:00,
2013-01-25 14:31:00,21.9,6.2,30.05,South,180,0.0,0.0,51,0.00,,,0.00,WUHU216HW,2013-01-25 19:31:00,
2013-01-25 14:36:00,22.1,6.6,30.05,South,180,0.0,0.0,51,0.00,,,0.00,WUHU216HW,2013-01-25 19:36:00,
2013-01-25 14:41:00,22.4,7.0,30.04,North,0,0.0,0.0,51,0.00,,,0.00,WUHU216HW,2013-01-25 19:41:00,
2013-01-25 14:46:00,22.6,7.1,30.04,SE,135,0.0,0.0,51,0.00,,,0.00,WUHU216HW,2013-01-25 19:46:00,
2013-01-25 14:51:00,23.3,7.8,30.04,SSW,203,0.0,0.0,51,0.00,,,0.00,WUHU216HW,2013-01-25 19:51:00,
2013-01-25 14:56:00,23.5,8.0,30.04,SSW,203,0.0,0.0,51,0.00,,,0.00,WUHU216HW,2013-01-25 19:56:00,
2013-01-25 15:01:00,23.7,7.8,30.04,SW,225,0.0,0.0,50,0.00,,,0.00,WUHU216HW,2013-01-25 20:01:00,
2013-01-25 15:06:00,23.7,7.8,30.04,West,270,0.0,0.0,50,0.00,,,0.00,WUHU216HW,2013-01-25 20:06:00,
2013-01-25 15:11:00,23.7,7.6,30.04,West,270,0.0,0.0,50,0.00,,,0.00,WUHU216HW,2013-01-25 20:11:00,
2013-01-25 15:16:00,23.5,7.6,30.04,NW,315,0.0,0.0,50,0.00,,,0.00,WUHU216HW,2013-01-25 20:16:00,
2013-01-25 15:21:00,23.5,7.1,30.04,WNW,293,0.0,0.0,49,0.00,,,0.00,WUHU216HW,2013-01-25 20:21:00,
2013-01-25 15:26:00,23.1,6.9,30.04,WNW,293,0.0,0.0,49,0.00,,,0.00,WUHU216HW,2013-01-25 20:26:00,
2013-01-25 15:31:00,23.3,6.9,30.04,WSW,248,0.0,0.0,49,0.00,,,0.00,WUHU216HW,2013-01-25 20:31:00,
2013-01-25 15:36:00,23.1,6.8,30.04,WSW,248,0.0,0.0,49,0.00,,,0.00,WUHU216HW,2013-01-25 20:36:00,
2013-01-25 15:41:00,23.0,6.6,30.04,SW,225,0.0,0.0,49,0.00,,,0.00,WUHU216HW,2013-01-25 20:41:00,
2013-01-25 15:46:00,22.8,6.4,30.04,South,180,0.0,0.0,49,0.00,,,0.00,WUHU216HW,2013-01-25 20:46:00,
2013-01-25 15:51:00,22.8,6.3,30.04,South,180,0.0,0.0,49,0.00,,,0.00,WUHU216HW,2013-01-25 20:51:00,
2013-01-25 15:56:00,22.4,6.1,30.04,NNW,338,0.0,0.0,49,0.00,,,0.00,WUHU216HW,2013-01-25 20:56:00,
2013-01-25 16:01:00,22.4,6.1,30.04,WNW,293,0.0,0.0,49,0.00,,,0.00,WUHU216HW,2013-01-25 21:01:00,
2013-01-25 16:06:00,22.2,5.9,30.04,SSW,203,0.0,0.0,49,0.00,,,0.00,WUHU216HW,2013-01-25 21:06:00,
2013-01-25 16:11:00,22.1,5.7,30.03,SSW,203,0.0,0.0,49,0.00,,,0.00,WUHU216HW,2013-01-25 21:11:00,
2013-01-25 16:16:00,21.9,5.5,30.03,South,180,0.0,0.0,49,0.00,,,0.00,WUHU216HW,2013-01-25 21:16:00,
2013-01-25 16:21:00,21.7,5.4,30.04,SW,225,0.0,0.0,49,0.00,,,0.00,WUHU216HW,2013-01-25 21:21:00,
2013-01-25 16:26:00,21.3,5.0,30.04,SSW,203,0.0,0.0,49,0.00,,,0.00,WUHU216HW,2013-01-25 21:26:00,
2013-01-25 16:31:00,21.3,5.0,30.04,South,180,0.0,0.0,49,0.00,,,0.00,WUHU216HW,2013-01-25 21:31:00,
2013-01-25 16:36:00,21.3,5.0,30.03,SSW,203,0.0,0.0,49,0.00,,,0.00,WUHU216HW,2013-01-25 21:36:00,
2013-01-25 16:41:00,21.2,5.5,30.04,SSW,203,0.0,0.0,50,0.00,,,0.00,WUHU216HW,2013-01-25 21:41:00,
2013-01-25 16:46:00,21.0,5.1,30.04,SW,225,0.0,0.0,50,0.00,,,0.00,WUHU216HW,2013-01-25 21:46:00,
2013-01-25 16:51:00,20.8,5.0,30.04,WSW,248,0.0,0.0,50,0.00,,,0.00,WUHU216HW,2013-01-25 21:51:00,
2013-01-25 16:56:00,20.6,4.8,30.04,West,270,0.0,0.0,50,0.00,,,0.00,WUHU216HW,2013-01-25 21:56:00,
2013-01-25 17:01:00,20.6,4.8,30.04,SW,225,0.0,0.0,50,0.00,,,0.00,WUHU216HW,2013-01-25 22:01:00,
2013-01-25 17:06:00,20.6,4.8,30.04,SW,225,0.0,0.0,50,0.00,,,0.00,WUHU216HW,2013-01-25 22:06:00,
2013-01-25 17:11:00,20.6,5.2,30.04,WSW,248,0.0,0.0,51,0.00,,,0.00,WUHU216HW,2013-01-25 22:11:00,
2013-01-25 17:16:00,20.4,4.7,30.04,SW,225,0.0,0.0,50,0.00,,,0.00,WUHU216HW,2013-01-25 22:16:00,
2013-01-25 17:21:00,20.3,4.9,30.04,SW,225,0.0,0.0,51,0.00,,,0.00,WUHU216HW,2013-01-25 22:21:00,
2013-01-25 17:26:00,20.3,4.9,30.05,WSW,248,0.0,0.0,51,0.00,,,0.00,WUHU216HW,2013-01-25 22:26:00,
2013-01-25 17:31:00,20.1,4.7,30.06,WSW,248,0.0,0.0,51,0.00,,,0.00,WUHU216HW,2013-01-25 22:31:00,
2013-01-25 17:36:00,19.9,4.6,30.05,SW,225,0.0,0.0,51,0.00,,,0.00,WUHU216HW,2013-01-25 22:36:00,
2013-01-25 17:41:00,19.7,4.4,30.06,SW,225,0.0,0.0,51,0.00,,,0.00,WUHU216HW,2013-01-25 22:41:00,
2013-01-25 17:46:00,19.7,4.4,30.05,West,270,0.0,0.0,51,0.00,,,0.00,WUHU216HW,2013-01-25 22:46:00,
2013-01-25 17:51:00,19.7,4.8,30.05,West,270,0.0,0.0,52,0.00,,,0.00,WUHU216HW,2013-01-25 22:51:00,
2013-01-25 17:56:00,19.7,4.8,30.04,West,270,0.0,0.0,52,0.00,,,0.00,WUHU216HW,2013-01-25 22:56:00,
2013-01-25 18:01:00,19.7,4.8,30.05,West,270,0.0,0.0,52,0.00,,,0.00,WUHU216HW,2013-01-25 23:01:00,
2013-01-25 18:06:00,19.5,4.6,30.05,West,270,0.0,0.0,52,0.00,,,0.00,WUHU216HW,2013-01-25 23:06:00,
2013-01-25 18:11:00,19.5,4.6,30.05,West,270,0.0,0.0,52,0.00,,,0.00,WUHU216HW,2013-01-25 23:11:00,
2013-01-25 18:16:00,19.5,4.6,30.06,West,270,0.0,0.0,52,0.00,,,0.00,WUHU216HW,2013-01-25 23:16:00,
2013-01-25 18:21:00,19.5,4.6,30.05,West,270,0.0,0.0,52,0.00,,,0.00,WUHU216HW,2013-01-25 23:21:00,
2013-01-25 18:26:00,19.5,4.6,30.05,West,270,0.0,0.0,52,0.00,,,0.00,WUHU216HW,2013-01-25 23:26:00,
2013-01-25 18:31:00,19.5,5.0,30.06,WSW,248,0.0,0.0,53,0.00,,,0.00,WUHU216HW,2013-01-25 23:31:00,
2013-01-25 18:36:00,19.5,5.0,30.06,SW,225,0.0,0.0,53,0.00,,,0.00,WUHU216HW,2013-01-25 23:36:00,
2013-01-25 18:41:00,19.4,4.9,30.07,SSW,203,0.0,0.0,53,0.00,,,0.00,WUHU216HW,2013-01-25 23:41:00,
2013-01-25 18:46:00,19.4,4.7,30.07,SW,225,0.0,0.0,53,0.00,,,0.00,WUHU216HW,2013-01-25 23:46:00,
2013-01-25 18:51:00,19.2,4.7,30.07,SW,225,0.0,0.0,53,0.00,,,0.00,WUHU216HW,2013-01-25 23:51:00,
2013-01-25 18:56:00,19.0,5.0,30.07,SW,225,0.0,0.0,54,0.00,,,0.00,WUHU216HW,2013-01-25 23:56:00,
2013-01-25 19:01:00,19.0,5.0,30.06,SSW,203,0.0,0.0,54,0.00,,,0.00,WUHU216HW,2013-01-26 00:01:00,
2013-01-25 19:06:00,19.0,5.0,30.07,WSW,248,0.0,0.0,54,0.00,,,0.00,WUHU216HW,2013-01-26 00:06:00,
2013-01-25 19:11:00,19.0,5.0,30.08,WSW,248,0.0,0.0,54,0.00,,,0.00,WUHU216HW,2013-01-26 00:11:00,
2013-01-25 19:16:00,19.0,5.3,30.08,SW,225,0.0,0.0,55,0.00,,,0.00,WUHU216HW,2013-01-26 00:16:00,
2013-01-25 19:21:00,18.8,5.2,30.07,SW,225,0.0,0.0,55,0.00,,,0.00,WUHU216HW,2013-01-26 00:21:00,
2013-01-25 19:26:00,18.8,5.2,30.07,SW,225,0.0,0.0,55,0.00,,,0.00,WUHU216HW,2013-01-26 00:26:00,
2013-01-25 19:31:00,18.8,5.2,30.07,SSW,203,0.0,0.0,55,0.00,,,0.00,WUHU216HW,2013-01-26 00:31:00,
2013-01-25 19:36:00,18.8,5.6,30.08,SW,225,0.0,0.0,56,0.00,,,0.00,WUHU216HW,2013-01-26 00:36:00,
2013-01-25 19:41:00,18.8,5.6,30.07,WSW,248,0.0,0.0,56,0.00,,,0.00,WUHU216HW,2013-01-26 00:41:00,
2013-01-25 19:46:00,18.8,5.6,30.07,SW,225,0.0,0.0,56,0.00,,,0.00,WUHU216HW,2013-01-26 00:46:00,
2013-01-25 19:51:00,18.8,5.6,30.07,WSW,248,0.0,0.0,56,0.00,,,0.00,WUHU216HW,2013-01-26 00:51:00,
2013-01-25 19:56:00,18.8,6.0,30.07,SW,225,0.0,0.0,57,0.00,,,0.00,WUHU216HW,2013-01-26 00:56:00,
2013-01-25 20:01:00,18.8,6.0,30.07,SW,225,0.0,0.0,57,0.00,,,0.00,WUHU216HW,2013-01-26 01:01:00,
2013-01-25 20:06:00,18.8,6.0,30.07,WSW,248,0.0,0.0,57,0.00,,,0.00,WUHU216HW,2013-01-26 01:06:00,
2013-01-25 20:11:00,18.8,6.0,30.07,WSW,248,0.0,0.0,57,0.00,,,0.00,WUHU216HW,2013-01-26 01:11:00,
2013-01-25 20:16:00,18.6,6.2,30.07,SSW,203,0.0,0.0,58,0.00,,,0.00,WUHU216HW,2013-01-26 01:16:00,
2013-01-25 20:21:00,18.6,6.2,30.07,WSW,248,0.0,0.0,58,0.00,,,0.00,WUHU216HW,2013-01-26 01:21:00,
2013-01-25 20:26:00,18.8,6.4,30.08,SSW,203,0.0,0.0,58,0.00,,,0.00,WUHU216HW,2013-01-26 01:26:00,
2013-01-25 20:31:00,18.6,6.2,30.08,SW,225,0.0,0.0,58,0.00,,,0.00,WUHU216HW,2013-01-26 01:31:00,
2013-01-25 20:36:00,18.6,6.6,30.08,SW,225,0.0,0.0,59,0.00,,,0.00,WUHU216HW,2013-01-26 01:36:00,
2013-01-25 20:41:00,18.6,6.6,30.07,SSW,203,0.0,0.0,59,0.00,,,0.00,WUHU216HW,2013-01-26 01:41:00,
2013-01-25 20:46:00,18.6,6.6,30.08,SW,225,0.0,0.0,59,0.00,,,0.00,WUHU216HW,2013-01-26 01:46:00,
2013-01-25 20:51:00,18.6,6.6,30.08,SSW,203,0.0,0.0,59,0.00,,,0.00,WUHU216HW,2013-01-26 01:51:00,
2013-01-25 20:56:00,18.6,6.6,30.09,SSW,203,0.0,0.0,59,0.00,,,0.00,WUHU216HW,2013-01-26 01:56:00,
2013-01-25 21:01:00,18.8,6.6,30.09,SW,225,0.0,0.0,59,0.00,,,0.00,WUHU216HW,2013-01-26 02:01:00,
2013-01-25 21:06:00,18.6,7.0,30.09,SW,225,0.0,0.0,60,0.00,,,0.00,WUHU216HW,2013-01-26 02:06:00,
2013-01-25 21:11:00,18.6,7.0,30.09,SW,225,0.0,0.0,60,0.00,,,0.00,WUHU216HW,2013-01-26 02:11:00,
2013-01-25 21:16:00,18.6,7.0,30.10,SW,225,0.0,0.0,60,0.00,,,0.00,WUHU216HW,2013-01-26 02:16:00,
2013-01-25 21:21:00,18.8,7.2,30.10,WSW,248,0.0,0.0,60,0.00,,,0.00,WUHU216HW,2013-01-26 02:21:00,
2013-01-25 21:26:00,18.8,7.2,30.10,SW,225,0.0,0.0,60,0.00,,,0.00,WUHU216HW,2013-01-26 02:26:00,
2013-01-25 21:31:00,18.8,7.2,30.10,South,180,0.0,0.0,60,0.00,,,0.00,WUHU216HW,2013-01-26 02:31:00,
2013-01-25 21:36:00,18.8,7.2,30.09,South,180,0.0,0.0,60,0.00,,,0.00,WUHU216HW,2013-01-26 02:36:00,
2013-01-25 21:41:00,18.8,7.2,30.10,South,180,0.0,0.0,60,0.00,,,0.00,WUHU216HW,2013-01-26 02:41:00,
2013-01-25 21:46:00,18.8,7.5,30.12,West,270,0.0,0.0,61,0.00,,,0.00,WUHU216HW,2013-01-26 02:46:00,
2013-01-25 21:51:00,19.0,7.5,30.13,West,270,0.0,0.0,61,0.00,,,0.00,WUHU216HW,2013-01-26 02:51:00,
2013-01-25 21:56:00,19.0,7.7,30.12,SW,225,0.0,0.0,61,0.00,,,0.00,WUHU216HW,2013-01-26 02:56:00,
2013-01-25 22:01:00,19.0,7.7,30.13,WSW,248,0.0,0.0,61,0.00,,,0.00,WUHU216HW,2013-01-26 03:01:00,
2013-01-25 22:06:00,19.0,7.7,30.13,South,180,0.0,0.0,61,0.00,,,0.00,WUHU216HW,2013-01-26 03:06:00,
2013-01-25 22:11:00,19.0,7.7,30.13,SW,225,0.0,0.0,61,0.00,,,0.00,WUHU216HW,2013-01-26 03:11:00,
2013-01-25 22:16:00,19.0,8.0,30.13,WSW,248,0.0,0.0,62,0.00,,,0.00,WUHU216HW,2013-01-26 03:16:00,
2013-01-25 22:21:00,19.0,8.0,30.13,SSW,203,0.0,0.0,62,0.00,,,0.00,WUHU216HW,2013-01-26 03:21:00,
2013-01-25 22:26:00,19.0,8.0,30.13,SW,225,0.0,0.0,62,0.00,,,0.00,WUHU216HW,2013-01-26 03:26:00,
2013-01-25 22:31:00,19.0,8.0,30.13,SW,225,0.0,0.0,62,0.00,,,0.00,WUHU216HW,2013-01-26 03:31:00,
2013-01-25 22:36:00,19.0,8.0,30.13,SSW,203,0.0,0.0,62,0.00,,,0.00,WUHU216HW,2013-01-26 03:36:00,
2013-01-25 22:41:00,19.2,8.2,30.13,SSW,203,0.0,0.0,62,0.00,,,0.00,WUHU216HW,2013-01-26 03:41:00,
2013-01-25 22:46:00,19.2,8.2,30.13,WSW,248,0.0,0.0,62,0.00,,,0.00,WUHU216HW,2013-01-26 03:46:00,
2013-01-25 22:51:00,19.2,8.2,30.13,South,180,0.0,0.0,62,0.00,,,0.00,WUHU216HW,2013-01-26 03:51:00,
2013-01-25 22:56:00,19.2,8.5,30.13,SW,225,0.0,0.0,63,0.00,,,0.00,WUHU216HW,2013-01-26 03:56:00,
2013-01-25 23:01:00,19.2,8.5,30.13,SSW,203,0.0,0.0,63,0.00,,,0.00,WUHU216HW,2013-01-26 04:01:00,
2013-01-25 23:06:00,19.4,8.7,30.13,SW,225,0.0,0.0,63,0.00,,,0.00,WUHU216HW,2013-01-26 04:06:00,
2013-01-25 23:11:00,19.4,8.7,30.13,South,180,0.0,0.0,63,0.00,,,0.00,WUHU216HW,2013-01-26 04:11:00,
2013-01-25 23:16:00,19.4,8.7,30.14,South,180,0.0,0.0,63,0.00,,,0.00,WUHU216HW,2013-01-26 04:16:00,
2013-01-25 23:21:00,19.2,8.5,30.13,SSW,203,0.0,0.0,63,0.00,,,0.00,WUHU216HW,2013-01-26 04:21:00,
2013-01-25 23:26:00,19.5,9.0,30.13,South,180,0.0,0.0,64,0.00,,,0.00,WUHU216HW,2013-01-26 04:26:00,
2013-01-25 23:31:00,19.5,9.2,30.13,SSW,203,0.0,0.0,64,0.00,,,0.00,WUHU216HW,2013-01-26 04:31:00,
2013-01-25 23:36:00,19.4,9.2,30.13,SSW,203,0.0,0.0,64,0.00,,,0.00,WUHU216HW,2013-01-26 04:36:00,
2013-01-25 23:41:00,19.5,9.5,30.13,South,180,0.0,0.0,65,0.00,,,0.00,WUHU216HW,2013-01-26 04:41:00,
2013-01-25 23:46:00,19.4,9.4,30.13,South,180,0.0,0.0,65,0.00,,,0.00,WUHU216HW,2013-01-26 04:46:00,
2013-01-25 23:51:00,19.5,9.5,30.13,South,180,0.0,0.0,65,0.00,,,0.00,WUHU216HW,2013-01-26 04:51:00,
2013-01-25 23:56:00,19.5,9.5,30.13,South,180,0.0,0.0,65,0.00,,,0.00,WUHU216HW,2013-01-26 04:56:00,